createdAt,value
2023-04-29T00:00:55.322Z,95453.59
2023-04-29T00:06:18.411Z,95446.13
2023-04-29T00:11:40.290Z,95446.53
2023-04-29T00:17:04.830Z,95440.28
2023-04-29T00:22:26.282Z,95430.06
2023-04-29T00:27:48.285Z,95430.91
2023-04-29T00:33:10.367Z,95417.59
2023-04-29T00:38:32.290Z,95413.25
2023-04-29T00:43:54.349Z,95405.84
2023-04-29T00:49:16.269Z,95413.31
2023-04-29T00:54:38.309Z,95409.81
2023-04-29T01:00:00.367Z,95420.41
2023-04-29T01:05:22.287Z,95415.31
2023-04-29T01:10:55.294Z,95414.19
2023-04-29T01:16:30.451Z,95412.72
2023-04-29T01:22:00.284Z,95421.03
2023-04-29T01:27:46.286Z,95410.16
2023-04-29T01:33:25.297Z,95412.91
2023-04-29T01:39:12.569Z,95414.03
2023-04-29T01:44:42.312Z,95404.97
2023-04-29T01:50:09.260Z,95416.25
2023-04-29T01:55:31.257Z,95399.00
2023-04-29T02:01:02.340Z,95424.00
2023-04-29T02:06:27.270Z,95426.75
2023-04-29T02:11:52.268Z,95440.38
2023-04-29T02:17:16.559Z,95420.78
2023-04-29T02:22:38.260Z,95424.66
2023-04-29T02:28:00.261Z,95427.75
2023-04-29T02:33:22.281Z,95423.81
2023-04-29T02:38:46.266Z,95417.91
2023-04-29T02:44:10.296Z,95421.00
2023-04-29T02:49:32.249Z,95424.06
2023-04-29T02:54:54.271Z,95414.22
2023-04-29T03:00:16.327Z,95414.56
2023-04-29T03:05:38.271Z,95412.25
2023-04-29T03:11:00.269Z,95398.91
2023-04-29T03:16:23.291Z,95411.88
2023-04-29T03:21:45.272Z,95415.38
2023-04-29T03:27:07.322Z,95414.97
2023-04-29T03:32:29.296Z,95417.31
2023-04-29T03:37:51.243Z,95424.34
2023-04-29T03:43:19.250Z,95424.34
2023-04-29T03:48:43.289Z,95428.34
2023-04-29T03:54:07.243Z,95422.09
2023-04-29T03:59:29.251Z,95422.44
2023-04-29T04:04:51.406Z,95428.69
2023-04-29T04:10:13.255Z,95431.81
2023-04-29T04:15:35.290Z,95429.84
2023-04-29T04:20:57.230Z,95427.03
2023-04-29T04:26:19.258Z,95430.56
2023-04-29T04:31:59.255Z,95437.31
2023-04-29T04:37:22.249Z,95444.31
2023-04-29T04:42:49.284Z,95446.22
2023-04-29T04:48:18.244Z,95443.84
2023-04-29T04:53:41.279Z,95447.72
2023-04-29T04:59:08.231Z,95450.06
2023-04-29T05:04:31.306Z,95447.25
2023-04-29T05:09:55.219Z,95441.72
2023-04-29T05:15:21.230Z,95461.69
2023-04-29T05:20:46.230Z,95474.66
2023-04-29T05:26:08.240Z,95469.84
2023-04-29T05:31:30.419Z,95463.53
2023-04-29T05:36:57.245Z,95466.63
2023-04-29T05:42:24.469Z,95479.09
2023-04-29T05:47:46.367Z,95488.47
2023-04-29T05:53:08.220Z,95504.47
2023-04-29T05:58:32.232Z,95508.31
2023-04-29T06:03:57.305Z,95497.44
2023-04-29T06:09:29.231Z,95507.22
2023-04-29T06:14:53.215Z,95513.81
2023-04-29T06:20:17.670Z,95532.59
2023-04-29T06:25:41.278Z,95532.22
2023-04-29T06:31:03.205Z,95536.47
2023-04-29T06:36:25.201Z,95533.59
2023-04-29T06:42:02.553Z,95529.25
2023-04-29T06:47:43.255Z,95545.59
2023-04-29T06:53:17.224Z,95544.69
2023-04-29T06:58:39.234Z,95539.06
2023-04-29T07:04:01.314Z,95547.97
2023-04-29T07:09:23.205Z,95564.69
2023-04-29T07:14:45.213Z,95555.38
2023-04-29T07:27:34.238Z,95560.53
2023-04-29T07:33:03.261Z,95561.19
2023-04-29T07:38:25.514Z,95563.78
2023-04-29T07:43:47.327Z,95568.78
2023-04-29T07:49:09.292Z,95566.31
2023-04-29T07:54:31.256Z,95580.41
2023-04-29T07:59:53.329Z,95575.88
2023-04-29T08:05:16.650Z,95585.22
2023-04-29T08:10:38.306Z,95582.56
2023-04-29T08:22:07.216Z,95574.72
2023-04-29T08:27:32.230Z,95585.41
2023-04-29T08:32:55.257Z,95590.81
2023-04-29T08:38:17.192Z,95597.88
2023-04-29T08:43:40.198Z,95588.78
2023-04-29T08:49:04.486Z,95605.19
2023-04-29T08:54:26.227Z,95605.63
2023-04-29T08:59:48.204Z,95605.72
2023-04-29T09:05:23.201Z,95598.22
2023-04-29T09:10:49.462Z,95600.22
2023-04-29T09:16:12.520Z,95594.81
2023-04-29T09:21:35.202Z,95595.41
2023-04-29T09:26:57.185Z,95603.69
2023-04-29T09:32:27.242Z,95594.97
2023-04-29T09:37:49.199Z,95609.19
2023-04-29T09:43:20.174Z,95613.72
2023-04-29T09:48:45.192Z,95611.06
2023-04-29T09:54:09.209Z,95620.72
2023-04-29T09:59:32.165Z,95624.50
2023-04-29T10:05:00.262Z,95636.38
2023-04-29T10:10:23.170Z,95640.00
2023-04-29T10:15:56.203Z,95646.63
2023-04-29T10:21:21.175Z,95646.41
2023-04-29T10:26:45.183Z,95644.44
2023-04-29T10:32:09.176Z,95644.59
2023-04-29T10:37:31.164Z,95656.72
2023-04-29T10:42:56.173Z,95639.63
2023-04-29T10:48:20.165Z,95640.59
2023-04-29T10:59:54.581Z,95635.75
2023-04-29T11:05:12.805Z,95628.00
2023-04-29T11:10:17.838Z,95637.41
2023-04-29T11:15:21.902Z,95633.28
2023-04-29T11:20:27.385Z,95643.97
2023-04-29T11:25:29.172Z,95641.28
2023-04-29T11:30:31.757Z,95637.75
2023-04-29T11:35:41.750Z,95648.34
2023-04-29T11:41:03.977Z,95659.00
2023-04-29T11:46:15.063Z,95645.91
2023-04-29T11:51:22.660Z,95654.31
2023-04-29T11:56:26.506Z,95659.81
2023-04-29T12:01:28.639Z,95661.41
2023-04-29T12:06:32.345Z,95667.59
2023-04-29T12:11:41.597Z,95670.78
2023-04-29T12:16:46.730Z,95670.06
2023-04-29T12:21:49.688Z,95676.78
2023-04-29T12:26:58.729Z,95690.06
2023-04-29T12:32:00.739Z,95663.66
2023-04-29T12:37:33.385Z,95668.41
2023-04-29T12:42:42.484Z,95672.03
2023-04-29T12:47:44.810Z,95674.72
2023-04-29T12:52:46.960Z,95678.75
2023-04-29T12:57:48.735Z,95685.63
2023-04-29T13:03:04.591Z,95681.13
2023-04-29T13:08:07.298Z,95677.59
2023-04-29T13:13:10.076Z,95693.00
2023-04-29T13:18:11.682Z,95677.59
2023-04-29T13:23:13.343Z,95681.97
2023-04-29T13:28:15.090Z,95671.72
2023-04-29T13:33:17.174Z,95681.28
2023-04-29T13:38:23.557Z,95687.72
2023-04-29T13:43:36.639Z,95667.75
2023-04-29T14:04:23.987Z,95679.69
2023-04-29T14:09:34.515Z,95680.31
2023-04-29T14:14:38.108Z,95687.00
2023-04-29T14:19:40.096Z,95682.63
2023-04-29T14:24:45.440Z,95692.72
2023-04-29T14:29:49.899Z,95695.06
2023-04-29T14:34:53.649Z,95689.66
2023-04-29T14:39:56.658Z,95701.56
2023-04-29T14:44:58.663Z,95692.03
2023-04-29T14:50:02.453Z,95703.03
2023-04-29T14:55:04.903Z,95705.72
2023-04-29T15:00:10.510Z,95720.69
2023-04-29T15:05:20.071Z,95719.63
2023-04-29T15:10:23.635Z,95714.03
2023-04-29T15:15:25.623Z,95734.00
2023-04-29T15:20:27.760Z,95734.38
2023-04-29T15:25:36.016Z,95731.69
2023-04-29T15:30:40.924Z,95741.56
2023-04-29T15:35:42.628Z,95742.78
2023-04-29T15:40:44.212Z,95746.91
2023-04-29T15:45:49.926Z,95752.81
2023-04-29T15:50:53.706Z,95754.81
2023-04-29T15:55:56.179Z,95752.97
2023-04-29T16:00:57.993Z,95763.28
2023-04-29T16:05:59.856Z,95770.06
2023-04-29T16:11:04.153Z,95771.63
2023-04-29T16:16:10.055Z,95775.84
2023-04-29T16:21:14.991Z,95779.31
2023-04-29T16:26:17.681Z,95775.44
2023-04-29T16:31:20.234Z,95790.03
2023-04-29T16:36:22.858Z,95782.28
2023-04-29T16:41:30.032Z,95790.25
2023-04-29T16:46:32.725Z,95794.22
2023-04-29T16:51:34.702Z,95802.03
2023-04-29T16:56:38.001Z,95801.72
2023-04-29T17:01:41.309Z,95803.75
2023-04-29T17:06:44.137Z,95809.31
2023-04-29T17:11:45.853Z,95810.47
2023-04-29T17:16:47.487Z,95806.50
2023-04-29T17:21:49.625Z,95815.28
2023-04-29T17:26:51.871Z,95824.38
2023-04-29T17:32:00.046Z,95829.53
2023-04-29T17:37:06.077Z,95831.13
2023-04-29T17:42:08.972Z,95841.38
2023-04-29T17:47:14.220Z,95843.06
2023-04-29T17:52:21.112Z,95845.03
2023-04-29T17:57:22.936Z,95836.44
2023-04-29T18:02:27.043Z,95843.91
2023-04-29T18:07:32.624Z,95852.94
2023-04-29T18:12:37.870Z,95859.22
2023-04-29T18:17:44.348Z,95861.59
2023-04-29T18:22:47.335Z,95870.69
2023-04-29T18:27:54.434Z,95871.19
2023-04-29T18:33:07.700Z,95871.66
2023-04-29T18:38:15.625Z,95874.47
2023-04-29T18:43:25.340Z,95878.47
2023-04-29T18:48:32.291Z,95890.00
2023-04-29T18:53:38.940Z,95906.66
2023-04-29T18:58:45.240Z,95904.84
2023-04-29T19:03:53.189Z,95906.16
2023-04-29T19:08:57.276Z,95921.97
2023-04-29T19:14:03.148Z,95916.56
2023-04-29T19:19:07.699Z,95920.91
2023-04-29T19:24:12.567Z,95923.34
2023-04-29T19:29:16.475Z,95932.78
2023-04-29T19:34:19.106Z,95935.56
2023-04-29T19:39:24.644Z,95938.75
2023-04-29T19:44:28.556Z,95943.50
2023-04-29T19:49:32.853Z,95947.81
2023-04-29T19:54:35.819Z,95943.13
2023-04-29T19:59:37.573Z,95942.41
2023-04-29T20:04:43.209Z,95952.63
2023-04-29T20:09:46.240Z,95950.78
2023-04-29T20:14:48.233Z,95952.81
2023-04-29T20:19:50.101Z,95951.25
2023-04-29T20:24:54.784Z,95955.63
2023-04-29T20:29:59.425Z,95958.88
2023-04-29T20:35:04.315Z,95961.31
2023-04-29T20:40:10.314Z,95953.94
2023-04-29T20:45:16.889Z,95959.16
2023-04-29T20:50:20.798Z,95961.59
2023-04-29T20:55:22.729Z,95966.75
2023-04-29T21:00:27.272Z,95968.72
2023-04-29T21:05:30.694Z,95973.09
2023-04-29T21:10:36.891Z,95966.44
2023-04-29T21:15:40.667Z,95974.31
2023-04-29T21:20:42.697Z,95979.06
2023-04-29T21:25:44.460Z,95975.13
2023-04-29T21:30:46.213Z,95986.09
2023-04-29T21:35:51.307Z,95993.22
2023-04-29T21:40:53.038Z,95992.44
2023-04-29T21:45:55.156Z,95989.38
2023-04-29T21:50:57.520Z,95995.63
2023-04-29T21:55:59.134Z,95991.72
2023-04-29T22:01:03.478Z,95990.53
2023-04-29T22:06:05.680Z,95988.19
2023-04-29T22:11:07.477Z,95992.47
2023-04-29T22:16:09.089Z,95995.63
2023-04-29T22:21:11.048Z,95991.72
2023-04-29T22:26:12.753Z,95996.47
2023-04-29T22:31:14.472Z,95999.63
2023-04-29T22:36:16.418Z,96002.38
2023-04-29T22:41:19.740Z,96000.44
2023-04-29T22:46:21.521Z,96005.59
2023-04-29T22:51:23.159Z,96000.94
2023-04-29T22:56:24.873Z,96006.44
2023-04-29T23:01:26.546Z,96005.28
2023-04-29T23:06:28.331Z,96002.13
2023-04-29T23:11:31.213Z,96004.13
2023-04-29T23:16:34.661Z,96010.41
2023-04-29T23:21:37.058Z,96008.03
2023-04-29T23:26:38.887Z,96020.53
2023-04-29T23:31:40.517Z,96024.03
2023-04-29T23:36:42.195Z,96014.69
2023-04-29T23:41:52.448Z,96022.94
2023-04-29T23:46:57.384Z,96015.13
2023-04-29T23:51:58.992Z,96012.38
2023-04-29T23:57:00.589Z,96013.56
